createdAt,value
2018-09-18T00:01:00.755Z,56.60
2018-09-18T00:03:03.837Z,56.60
2018-09-18T00:05:06.890Z,56.60
2018-09-18T00:07:10.122Z,57.40
2018-09-18T00:09:13.154Z,57.00
2018-09-18T00:11:16.170Z,57.70
2018-09-18T00:13:19.210Z,57.20
2018-09-18T00:15:22.189Z,58.10
2018-09-18T00:17:25.191Z,57.30
2018-09-18T00:19:28.381Z,57.90
2018-09-18T00:21:31.490Z,58.40
2018-09-18T00:23:34.550Z,59.00
2018-09-18T00:25:38.938Z,58.50
2018-09-18T00:27:41.952Z,58.60
2018-09-18T00:29:45.180Z,59.30
2018-09-18T00:31:48.408Z,59.30
2018-09-18T00:33:51.415Z,59.20
2018-09-18T00:35:54.466Z,59.20
2018-09-18T00:37:57.548Z,58.40
2018-09-18T00:40:00.659Z,59.40
2018-09-18T00:42:03.777Z,59.20
2018-09-18T00:44:06.815Z,58.70
2018-09-18T00:46:11.534Z,59.60
2018-09-18T00:48:15.902Z,58.30
2018-09-18T00:50:19.931Z,59.80
2018-09-18T00:52:24.297Z,60.00
2018-09-18T00:54:28.598Z,59.10
2018-09-18T00:56:32.578Z,59.40
2018-09-18T00:58:36.825Z,60.30
2018-09-18T01:00:41.129Z,59.90
2018-09-18T01:02:45.681Z,59.90
2018-09-18T01:04:49.795Z,59.70
2018-09-18T01:06:54.788Z,60.10
2018-09-18T01:08:59.245Z,59.20
2018-09-18T01:11:03.290Z,59.20
2018-09-18T01:13:09.394Z,59.60
2018-09-18T01:15:13.853Z,59.90
2018-09-18T01:17:18.471Z,58.70
2018-09-18T01:19:22.429Z,59.30
2018-09-18T01:21:26.329Z,59.50
2018-09-18T01:23:30.262Z,60.40
2018-09-18T01:25:34.282Z,58.80
2018-09-18T01:27:39.699Z,59.70
2018-09-18T01:29:43.776Z,59.20
2018-09-18T01:31:47.832Z,59.30
2018-09-18T01:33:51.882Z,60.60
2018-09-18T01:35:55.915Z,59.50
2018-09-18T01:38:00.034Z,59.10
2018-09-18T01:40:04.539Z,59.10
2018-09-18T01:42:09.175Z,60.40
2018-09-18T01:44:13.325Z,61.00
2018-09-18T01:46:17.416Z,60.40
2018-09-18T01:48:21.445Z,60.00
2018-09-18T01:50:25.289Z,60.60
2018-09-18T01:52:28.860Z,60.50
2018-09-18T01:54:33.173Z,59.90
2018-09-18T01:56:38.541Z,60.60
2018-09-18T01:58:42.339Z,59.60
2018-09-18T02:00:46.275Z,60.80
2018-09-18T02:02:50.336Z,60.40
2018-09-18T02:04:54.273Z,60.40
2018-09-18T02:06:57.428Z,60.30
2018-09-18T02:09:00.483Z,60.10
2018-09-18T02:11:03.536Z,60.40
2018-09-18T02:13:09.356Z,61.20
2018-09-18T02:15:13.180Z,61.10
2018-09-18T02:17:16.258Z,61.10
2018-09-18T02:19:19.348Z,60.90
2018-09-18T02:21:22.436Z,62.40
2018-09-18T02:23:25.823Z,61.10
2018-09-18T02:25:28.872Z,61.20
2018-09-18T02:27:32.064Z,61.30
2018-09-18T02:29:35.367Z,61.10
2018-09-18T02:31:40.131Z,61.20
2018-09-18T02:33:43.187Z,60.60
2018-09-18T02:35:46.389Z,60.80
2018-09-18T02:37:49.414Z,61.70
2018-09-18T02:39:52.687Z,61.50
2018-09-18T02:41:55.783Z,61.50
2018-09-18T02:43:58.853Z,61.40
2018-09-18T02:46:02.041Z,61.60
2018-09-18T02:48:05.269Z,62.50
2018-09-18T02:50:10.253Z,60.90
2018-09-18T02:52:13.623Z,60.70
2018-09-18T02:54:16.712Z,60.90
2018-09-18T02:56:19.751Z,61.40
2018-09-18T02:58:22.846Z,60.90
2018-09-18T03:00:25.959Z,62.10
2018-09-18T03:02:29.038Z,61.90
2018-09-18T03:04:32.092Z,61.80
2018-09-18T03:06:35.150Z,62.90
2018-09-18T03:08:39.945Z,62.40
2018-09-18T03:10:43.006Z,62.50
2018-09-18T03:12:46.365Z,62.90
2018-09-18T03:14:49.441Z,62.10
2018-09-18T03:16:52.486Z,61.80
2018-09-18T03:18:55.579Z,61.90
2018-09-18T03:20:58.675Z,62.40
2018-09-18T03:23:01.699Z,62.20
2018-09-18T03:25:05.085Z,62.30
2018-09-18T03:27:08.901Z,62.50
2018-09-18T03:29:11.962Z,62.80
2018-09-18T03:31:16.264Z,63.20
2018-09-18T03:33:20.440Z,62.70
2018-09-18T03:35:23.560Z,63.00
2018-09-18T03:37:26.946Z,63.10
2018-09-18T03:39:30.124Z,63.80
2018-09-18T03:41:33.222Z,66.20
2018-09-18T03:48:10.666Z,65.50
2018-09-18T03:50:13.756Z,64.00
2018-09-18T03:52:16.889Z,63.80
2018-09-18T03:54:19.969Z,64.50
2018-09-18T03:56:23.008Z,61.90
2018-09-18T03:58:26.072Z,61.80
2018-09-18T04:00:29.239Z,62.90
2018-09-18T04:02:32.272Z,62.10
2018-09-18T04:04:35.351Z,63.70
2018-09-18T04:06:40.185Z,63.30
2018-09-18T04:08:43.195Z,63.60
2018-09-18T04:10:46.293Z,64.20
2018-09-18T04:12:49.323Z,64.50
2018-09-18T04:14:52.642Z,63.30
2018-09-18T04:16:55.743Z,63.70
2018-09-18T04:18:58.791Z,64.10
2018-09-18T04:21:01.859Z,64.60
2018-09-18T04:23:05.046Z,63.20
2018-09-18T04:25:10.067Z,63.90
2018-09-18T04:27:13.093Z,63.40
2018-09-18T04:29:16.124Z,65.10
2018-09-18T04:31:19.305Z,65.30
2018-09-18T04:33:22.360Z,65.40
2018-09-18T04:35:25.381Z,64.00
2018-09-18T04:37:28.440Z,63.60
2018-09-18T04:39:31.494Z,64.50
2018-09-18T04:41:34.577Z,64.60
2018-09-18T04:43:38.622Z,64.60
2018-09-18T04:45:41.670Z,65.10
2018-09-18T04:47:44.684Z,65.30
2018-09-18T04:49:48.069Z,64.60
2018-09-18T04:51:51.122Z,65.70
2018-09-18T04:53:54.179Z,64.70
2018-09-18T04:55:57.208Z,64.50
2018-09-18T04:58:00.294Z,63.60
2018-09-18T05:00:04.070Z,64.00
2018-09-18T05:02:08.961Z,64.50
2018-09-18T05:04:11.930Z,65.60
2018-09-18T05:06:15.082Z,64.20
2018-09-18T05:08:18.378Z,64.40
2018-09-18T05:10:21.430Z,65.10
2018-09-18T05:12:24.435Z,66.90
2018-09-18T05:14:27.801Z,67.30
2018-09-18T05:16:30.813Z,65.30
2018-09-18T05:18:33.856Z,65.60
2018-09-18T05:20:38.931Z,66.40
2018-09-18T05:22:41.949Z,65.70
2018-09-18T05:24:45.007Z,65.10
2018-09-18T05:26:48.186Z,66.00
2018-09-18T05:28:51.187Z,67.90
2018-09-18T05:30:54.268Z,66.70
2018-09-18T05:32:57.304Z,69.30
2018-09-18T05:35:00.451Z,67.00
2018-09-18T05:37:03.485Z,65.30
2018-09-18T05:39:09.230Z,66.30
2018-09-18T05:41:12.321Z,66.90
2018-09-18T05:43:15.415Z,66.50
2018-09-18T05:45:18.497Z,67.90
2018-09-18T05:47:21.989Z,65.90
2018-09-18T05:49:27.287Z,64.90
2018-09-18T05:51:30.320Z,65.60
2018-09-18T05:53:33.442Z,65.50
2018-09-18T05:55:36.495Z,65.40
2018-09-18T05:57:40.794Z,65.60
2018-09-18T05:59:43.829Z,64.20
2018-09-18T06:01:46.916Z,65.60
2018-09-18T06:03:49.934Z,66.20
2018-09-18T06:05:52.943Z,66.40
2018-09-18T06:07:55.975Z,67.10
2018-09-18T06:09:59.035Z,65.50
2018-09-18T06:12:02.087Z,66.30
2018-09-18T06:14:05.107Z,67.20
2018-09-18T06:16:10.040Z,66.00
2018-09-18T06:18:13.075Z,67.70
2018-09-18T06:20:16.215Z,67.50
2018-09-18T06:22:19.206Z,68.80
2018-09-18T06:24:23.335Z,68.70
2018-09-18T06:26:26.566Z,69.70
2018-09-18T06:28:29.608Z,70.30
2018-09-18T06:30:32.775Z,70.20
2018-09-18T06:32:35.803Z,70.30
2018-09-18T06:34:40.442Z,70.40
2018-09-18T06:36:44.614Z,71.10
2018-09-18T06:38:48.555Z,70.80
2018-09-18T06:40:51.597Z,70.20
2018-09-18T06:42:54.646Z,69.70
2018-09-18T06:44:57.649Z,69.70
2018-09-18T06:47:00.652Z,69.20
2018-09-18T06:49:04.025Z,69.20
2018-09-18T06:51:08.830Z,69.30
2018-09-18T06:53:11.977Z,68.60
2018-09-18T06:55:16.008Z,68.00
2018-09-18T06:57:19.282Z,67.70
2018-09-18T06:59:22.344Z,67.40
2018-09-18T07:01:25.416Z,66.90
2018-09-18T07:03:28.601Z,67.40
2018-09-18T07:05:31.715Z,65.80
2018-09-18T07:07:35.069Z,65.50
2018-09-18T07:09:40.157Z,65.40
2018-09-18T07:11:44.121Z,66.00
2018-09-18T07:13:47.223Z,64.40
2018-09-18T07:15:50.396Z,63.60
2018-09-18T07:17:53.493Z,62.70
2018-09-18T07:19:56.633Z,62.70
2018-09-18T07:21:59.973Z,62.00
2018-09-18T07:24:03.143Z,61.10
2018-09-18T07:26:22.099Z,60.60
2018-09-18T07:28:26.857Z,60.30
2018-09-18T07:30:34.809Z,59.30
2018-09-18T07:32:39.624Z,58.70
2018-09-18T07:34:42.705Z,59.10
2018-09-18T07:36:45.795Z,58.50
2018-09-18T07:38:48.906Z,57.60
2018-09-18T07:40:52.799Z,56.50
2018-09-18T07:42:56.268Z,56.10
2018-09-18T07:44:59.294Z,56.00
2018-09-18T07:47:02.341Z,56.70
2018-09-18T07:49:05.674Z,54.30
2018-09-18T07:51:10.799Z,53.90
2018-09-18T07:53:14.223Z,53.70
2018-09-18T07:55:18.162Z,54.40
2018-09-18T07:57:22.012Z,54.20
2018-09-18T07:59:27.925Z,53.50
2018-09-18T08:01:31.848Z,53.60
2018-09-18T08:03:34.878Z,52.20
2018-09-18T08:05:39.268Z,50.50
2018-09-18T08:07:42.641Z,49.70
2018-09-18T08:09:45.680Z,49.00
2018-09-18T08:11:48.669Z,48.90
2018-09-18T08:13:51.783Z,48.50
2018-09-18T08:15:54.810Z,48.30
2018-09-18T08:17:58.303Z,47.90
2018-09-18T08:20:02.598Z,47.80
2018-09-18T08:22:08.793Z,47.70
2018-09-18T08:24:12.898Z,47.50
2018-09-18T08:26:16.300Z,47.50
2018-09-18T08:28:19.393Z,47.60
2018-09-18T08:30:22.486Z,46.70
2018-09-18T08:32:25.667Z,47.80
2018-09-18T08:34:28.703Z,46.30
2018-09-18T08:36:31.707Z,45.60
2018-09-18T08:38:34.800Z,45.90
2018-09-18T08:40:39.283Z,45.20
2018-09-18T08:42:42.285Z,45.10
2018-09-18T08:44:45.386Z,43.50
2018-09-18T08:46:48.509Z,43.70
2018-09-18T08:48:54.563Z,43.10
2018-09-18T08:50:58.550Z,43.90
2018-09-18T08:53:01.829Z,43.40
2018-09-18T08:55:04.871Z,44.10
2018-09-18T08:57:09.536Z,43.20
2018-09-18T08:59:12.543Z,43.30
2018-09-18T09:01:15.651Z,44.30
2018-09-18T09:03:18.680Z,43.00
2018-09-18T09:05:21.729Z,43.20
2018-09-18T09:07:24.740Z,44.10
2018-09-18T09:09:27.877Z,42.80
2018-09-18T09:11:31.161Z,43.00
2018-09-18T09:13:34.522Z,43.90
2018-09-18T09:15:39.075Z,43.90
2018-09-18T09:17:42.420Z,42.10
2018-09-18T09:19:45.438Z,42.70
2018-09-18T09:21:48.680Z,41.70
2018-09-18T09:23:53.449Z,40.20
2018-09-18T09:25:56.559Z,40.60
2018-09-18T09:27:59.701Z,40.60
2018-09-18T09:30:03.376Z,41.20
2018-09-18T09:32:06.471Z,40.40
2018-09-18T09:34:10.727Z,40.60
2018-09-18T09:36:13.801Z,41.20
2018-09-18T09:38:16.918Z,41.00
2018-09-18T09:40:19.991Z,40.50
2018-09-18T09:42:23.308Z,39.70
2018-09-18T09:44:26.319Z,39.60
2018-09-18T09:46:29.441Z,39.50
2018-09-18T09:48:33.002Z,38.30
2018-09-18T09:50:36.100Z,37.80
2018-09-18T09:52:40.415Z,37.30
2018-09-18T09:54:43.525Z,37.90
2018-09-18T09:56:46.579Z,36.30
2018-09-18T09:58:49.591Z,37.60
2018-09-18T10:00:58.508Z,37.30
2018-09-18T10:03:01.541Z,38.10
2018-09-18T10:05:04.595Z,34.70
2018-09-18T10:07:08.978Z,36.00
2018-09-18T10:09:12.779Z,36.80
2018-09-18T10:11:15.810Z,35.00
2018-09-18T10:13:18.840Z,35.60
2018-09-18T10:15:21.989Z,35.90
2018-09-18T10:17:25.051Z,35.20
2018-09-18T10:19:28.095Z,35.00
2018-09-18T10:21:31.091Z,34.70
2018-09-18T10:23:34.120Z,33.20
2018-09-18T10:25:37.832Z,34.90
2018-09-18T10:27:41.278Z,34.20
2018-09-18T10:29:44.367Z,33.80
2018-09-18T10:31:47.383Z,33.30
2018-09-18T10:33:50.497Z,32.80
2018-09-18T10:35:53.621Z,32.60
2018-09-18T10:37:56.654Z,31.70
2018-09-18T10:39:59.714Z,32.20
2018-09-18T10:42:02.770Z,31.70
2018-09-18T10:44:05.739Z,31.40
2018-09-18T10:46:10.211Z,30.40
2018-09-18T10:48:13.241Z,31.20
2018-09-18T10:50:16.307Z,32.10
2018-09-18T10:52:19.373Z,31.50
2018-09-18T10:54:22.442Z,32.00
2018-09-18T10:56:25.544Z,29.30
2018-09-18T10:58:28.604Z,29.50
2018-09-18T11:00:31.615Z,29.50
2018-09-18T11:02:34.695Z,29.60
2018-09-18T11:04:39.792Z,29.70
2018-09-18T11:06:42.965Z,29.50
2018-09-18T11:08:46.060Z,29.20
2018-09-18T11:10:49.533Z,30.00
2018-09-18T11:12:52.742Z,29.10
2018-09-18T11:14:55.813Z,30.00
2018-09-18T11:16:58.838Z,29.30
2018-09-18T11:19:01.931Z,29.30
2018-09-18T11:21:04.900Z,28.40
2018-09-18T11:23:09.493Z,29.20
2018-09-18T11:25:12.642Z,29.00
2018-09-18T11:27:15.593Z,28.60
2018-09-18T11:29:18.637Z,29.20
2018-09-18T11:31:21.647Z,29.40
2018-09-18T11:33:24.682Z,29.10
2018-09-18T11:35:27.752Z,29.10
2018-09-18T11:37:30.744Z,30.00
2018-09-18T11:39:33.771Z,29.60
2018-09-18T11:41:37.136Z,30.30
2018-09-18T11:43:40.767Z,29.80
2018-09-18T11:45:43.836Z,29.80
2018-09-18T11:47:47.756Z,30.00
2018-09-18T11:49:51.626Z,29.90
2018-09-18T11:51:55.616Z,30.10
2018-09-18T11:53:59.572Z,30.40
2018-09-18T11:56:03.680Z,29.30
2018-09-18T11:58:06.896Z,29.20
2018-09-18T12:00:11.377Z,29.20
2018-09-18T12:02:14.401Z,29.40
2018-09-18T12:04:17.630Z,29.30
2018-09-18T12:06:20.691Z,28.40
2018-09-18T12:08:23.852Z,28.10
2018-09-18T12:10:26.987Z,28.90
2018-09-18T12:12:30.071Z,28.50
2018-09-18T12:14:33.133Z,27.40
2018-09-18T12:16:36.299Z,28.00
2018-09-18T12:18:40.833Z,27.10
2018-09-18T12:20:43.963Z,26.60
2018-09-18T12:22:47.212Z,26.60
2018-09-18T12:27:25.528Z,27.20
2018-09-18T12:29:28.551Z,27.10
2018-09-18T12:34:33.695Z,26.30
2018-09-18T12:36:36.957Z,26.90
2018-09-18T12:38:41.007Z,26.00
2018-09-18T12:40:44.180Z,26.50
2018-09-18T12:42:48.771Z,27.00
2018-09-18T12:44:51.868Z,27.10
2018-09-18T12:46:54.920Z,27.50
2018-09-18T12:48:58.112Z,26.40
2018-09-18T12:51:01.683Z,26.60
2018-09-18T12:53:04.899Z,26.10
2018-09-18T12:55:07.978Z,26.50
2018-09-18T12:57:11.156Z,26.50
2018-09-18T12:59:21.319Z,27.30
2018-09-18T13:01:27.334Z,26.10
2018-09-18T13:03:30.638Z,26.20
2018-09-18T13:05:41.461Z,26.40
2018-09-18T13:07:51.096Z,26.20
2018-09-18T13:09:56.591Z,26.40
2018-09-18T13:27:40.168Z,25.70
2018-09-18T13:55:19.068Z,22.80
2018-09-18T13:57:25.965Z,22.60
2018-09-18T13:59:37.326Z,24.70
2018-09-18T14:02:03.144Z,23.90
2018-09-18T14:04:11.836Z,22.90
2018-09-18T14:06:31.801Z,23.20
2018-09-18T14:08:54.996Z,22.50
2018-09-18T14:11:02.799Z,22.20
2018-09-18T14:13:09.777Z,22.80
2018-09-18T14:15:13.959Z,24.30
2018-09-18T14:17:23.966Z,22.30
2018-09-18T14:19:31.833Z,21.90
2018-09-18T14:21:35.857Z,22.10
2018-09-18T14:23:40.285Z,22.60
2018-09-18T14:25:43.511Z,22.30
2018-09-18T14:27:46.949Z,21.80
2018-09-18T14:29:50.492Z,21.40
2018-09-18T14:31:53.672Z,21.40
2018-09-18T14:33:56.784Z,22.20
2018-09-18T14:36:04.472Z,22.00
2018-09-18T14:38:08.422Z,22.00
2018-09-18T14:40:11.703Z,22.00
2018-09-18T14:42:15.904Z,22.40
2018-09-18T14:44:18.987Z,22.50
2018-09-18T14:46:22.158Z,21.70
2018-09-18T14:48:25.348Z,22.50
2018-09-18T14:50:29.747Z,22.80
2018-09-18T14:52:33.345Z,22.20
2018-09-18T14:54:36.404Z,22.20
2018-09-18T14:56:39.638Z,22.90
2018-09-18T14:58:42.784Z,22.50
2018-09-18T15:00:45.825Z,22.50
2018-09-18T15:02:49.009Z,22.90
2018-09-18T15:04:52.151Z,23.80
2018-09-18T15:06:55.449Z,22.70
2018-09-18T15:08:58.544Z,22.20
2018-09-18T15:11:01.817Z,22.40
2018-09-18T15:13:05.129Z,22.30
2018-09-18T15:15:13.732Z,23.40
2018-09-18T15:17:18.801Z,23.60
2018-09-18T15:19:22.237Z,23.10
2018-09-18T15:21:25.474Z,23.10
2018-09-18T15:23:28.572Z,23.10
2018-09-18T15:25:32.855Z,22.20
2018-09-18T15:27:36.176Z,22.80
2018-09-18T15:29:39.360Z,22.90
2018-09-18T15:31:42.815Z,22.30
2018-09-18T15:33:46.298Z,23.20
2018-09-18T15:35:49.409Z,23.00
2018-09-18T15:37:52.505Z,22.70
2018-09-18T15:39:56.725Z,22.80
2018-09-18T15:41:59.781Z,22.40
2018-09-18T15:44:02.843Z,22.70
2018-09-18T15:46:06.007Z,22.90
2018-09-18T15:48:09.139Z,24.40
2018-09-18T15:50:13.179Z,24.00
2018-09-18T15:52:16.185Z,24.30
2018-09-18T15:54:19.213Z,23.30
2018-09-18T15:56:23.011Z,23.10
2018-09-18T15:58:26.149Z,22.70
2018-09-18T16:00:29.240Z,23.40
2018-09-18T16:02:32.282Z,24.00
2018-09-18T16:04:35.666Z,24.50
2018-09-18T16:06:38.729Z,24.50
2018-09-18T16:08:41.744Z,25.20
2018-09-18T16:10:45.084Z,23.90
2018-09-18T16:12:48.066Z,24.20
2018-09-18T16:14:51.215Z,25.00
2018-09-18T16:16:54.237Z,25.70
2018-09-18T16:18:57.197Z,25.00
2018-09-18T16:21:00.283Z,25.60
2018-09-18T16:23:03.337Z,26.20
2018-09-18T16:25:06.560Z,26.20
2018-09-18T16:27:09.586Z,25.20
2018-09-18T16:29:12.568Z,25.70
2018-09-18T16:31:15.619Z,26.60
2018-09-18T16:35:44.173Z,26.60
2018-09-18T16:37:48.276Z,26.90
2018-09-18T16:39:51.449Z,27.40
2018-09-18T16:41:54.689Z,27.60
2018-09-18T16:43:57.783Z,27.40
2018-09-18T16:46:01.559Z,27.80
2018-09-18T16:48:05.592Z,27.60
2018-09-18T16:50:09.454Z,27.80
2018-09-18T16:52:24.463Z,28.20
2018-09-18T16:54:34.604Z,28.40
2018-09-18T16:56:39.495Z,29.10
2018-09-18T16:58:47.322Z,28.70
2018-09-18T17:00:51.596Z,29.00
2018-09-18T17:02:55.406Z,28.10
2018-09-18T17:04:58.876Z,28.30
2018-09-18T17:07:02.705Z,28.50
2018-09-18T17:09:08.511Z,28.20
2018-09-18T17:11:13.574Z,28.60
2018-09-18T17:13:16.603Z,28.90
2018-09-18T17:15:19.956Z,29.20
2018-09-18T17:17:22.888Z,29.40
2018-09-18T17:19:26.230Z,29.60
2018-09-18T17:21:29.213Z,29.80
2018-09-18T17:23:32.160Z,30.00
2018-09-18T17:25:35.150Z,30.00
2018-09-18T17:27:38.249Z,30.40
2018-09-18T17:29:47.864Z,30.90
2018-09-18T17:31:50.920Z,31.10
2018-09-18T17:33:54.177Z,31.40
2018-09-18T17:35:57.115Z,32.00
2018-09-18T17:38:00.078Z,32.00
2018-09-18T17:40:03.200Z,31.80
2018-09-18T17:42:06.202Z,32.20
2018-09-18T17:44:10.103Z,32.30
2018-09-18T17:46:14.740Z,32.60
2018-09-18T17:48:17.771Z,32.70
2018-09-18T17:50:20.936Z,33.00
2018-09-18T17:52:23.907Z,33.30
2018-09-18T17:54:28.320Z,33.90
2018-09-18T17:56:31.703Z,34.30
2018-09-18T17:58:34.849Z,34.30
2018-09-18T18:00:37.802Z,34.20
2018-09-18T18:02:40.804Z,34.90
2018-09-18T18:04:45.731Z,34.20
2018-09-18T18:06:48.753Z,34.90
2018-09-18T18:08:51.851Z,34.90
2018-09-18T18:10:58.973Z,34.70
2018-09-18T18:13:01.937Z,34.40
2018-09-18T18:15:04.984Z,34.40
2018-09-18T18:17:07.980Z,35.00
2018-09-18T18:19:10.917Z,35.00
2018-09-18T18:21:15.851Z,35.60
2018-09-18T18:23:18.823Z,35.90
2018-09-18T18:25:21.798Z,35.70
2018-09-18T18:27:24.821Z,35.80
2018-09-18T18:29:27.812Z,35.90
2018-09-18T18:31:30.817Z,36.60
2018-09-18T18:33:33.804Z,37.00
2018-09-18T18:35:36.860Z,36.70
2018-09-18T18:37:40.094Z,37.00
2018-09-18T18:39:44.498Z,36.30
2018-09-18T18:41:47.573Z,37.00
2018-09-18T18:43:50.554Z,37.20
2018-09-18T18:45:59.585Z,38.10
2018-09-18T18:48:02.725Z,37.60
2018-09-18T18:50:05.843Z,37.90
2018-09-18T18:52:08.792Z,37.80
2018-09-18T18:54:13.080Z,38.20
2018-09-18T18:56:16.101Z,37.70
2018-09-18T18:58:19.071Z,38.80
2018-09-18T19:00:22.689Z,39.20
2018-09-18T19:02:31.729Z,39.10
2018-09-18T19:04:34.772Z,38.90
2018-09-18T19:06:38.081Z,38.80
2018-09-18T19:08:47.399Z,39.40
2018-09-18T19:10:50.397Z,39.50
2018-09-18T19:12:53.676Z,39.40
2018-09-18T19:14:56.632Z,39.20
2018-09-18T19:16:59.597Z,38.90
2018-09-18T19:19:08.961Z,39.30
2018-09-18T19:21:13.801Z,39.70
2018-09-18T19:23:16.860Z,39.50
2018-09-18T19:25:19.947Z,39.30
2018-09-18T19:27:22.972Z,39.30
2018-09-18T19:29:26.487Z,39.40
2018-09-18T19:31:29.436Z,38.80
2018-09-18T19:33:32.491Z,38.80
2018-09-18T19:35:41.926Z,38.90
2018-09-18T19:37:44.896Z,38.90
2018-09-18T19:39:54.149Z,39.10
2018-09-18T19:41:57.131Z,39.00
2018-09-18T19:44:03.796Z,39.00
2018-09-18T19:46:14.507Z,39.40
2018-09-18T19:48:17.522Z,39.10
2018-09-18T19:50:20.513Z,39.10
2018-09-18T19:52:23.575Z,39.00
2018-09-18T19:54:26.535Z,39.60
2018-09-18T19:56:29.532Z,39.60
2018-09-18T19:58:44.435Z,39.60
2018-09-18T20:00:52.441Z,39.60
2018-09-18T20:02:55.458Z,39.30
2018-09-18T20:04:58.392Z,39.70
2018-09-18T20:07:01.396Z,40.10
2018-09-18T20:09:08.623Z,39.90
2018-09-18T20:11:19.429Z,39.80
2018-09-18T20:13:28.525Z,39.90
2018-09-18T20:15:31.581Z,39.60
2018-09-18T20:17:34.673Z,39.70
2018-09-18T20:19:37.706Z,40.10
2018-09-18T20:21:40.750Z,40.00
2018-09-18T20:23:45.062Z,40.40
2018-09-18T20:25:48.209Z,40.70
2018-09-18T20:27:51.358Z,40.50
2018-09-18T20:29:54.392Z,40.30
2018-09-18T20:31:57.400Z,40.30
2018-09-18T20:34:00.451Z,40.40
2018-09-18T20:36:03.607Z,41.00
2018-09-18T20:38:06.534Z,40.50
2018-09-18T20:40:09.539Z,40.50
2018-09-18T20:42:14.370Z,40.40
2018-09-18T20:44:17.421Z,40.90
2018-09-18T20:46:20.426Z,40.70
2018-09-18T20:48:23.477Z,40.50
2018-09-18T20:50:26.473Z,41.80
2018-09-18T20:52:29.506Z,41.40
2018-09-18T20:54:32.495Z,42.10
2018-09-18T20:56:35.506Z,41.70
2018-09-18T20:58:38.512Z,41.50
2018-09-18T21:00:43.381Z,41.90
2018-09-18T21:02:46.919Z,42.20
2018-09-18T21:04:49.941Z,41.90
2018-09-18T21:06:52.944Z,41.60
2018-09-18T21:08:56.320Z,41.60
2018-09-18T21:11:19.744Z,42.00
2018-09-18T21:13:28.857Z,42.00
2018-09-18T21:15:31.866Z,42.00
2018-09-18T21:17:34.939Z,41.90
2018-09-18T21:19:37.928Z,42.60
2018-09-18T21:21:40.868Z,42.00
2018-09-18T21:23:45.275Z,42.60
2018-09-18T21:26:06.160Z,42.10
2018-09-18T21:28:09.170Z,42.70
2018-09-18T21:30:12.511Z,42.90
2018-09-18T21:32:15.475Z,42.70
2018-09-18T21:34:18.472Z,42.90
2018-09-18T21:36:21.434Z,42.80
2018-09-18T21:38:24.448Z,43.50
2018-09-18T21:40:27.461Z,42.80
2018-09-18T21:42:30.541Z,42.60
2018-09-18T21:44:33.499Z,43.60
2018-09-18T21:46:36.680Z,43.50
2018-09-18T21:48:39.626Z,43.20
2018-09-18T21:50:43.982Z,43.50
2018-09-18T21:52:47.327Z,43.40
2018-09-18T21:54:50.422Z,43.90
2018-09-18T21:56:53.402Z,43.10
2018-09-18T21:58:56.368Z,43.10
2018-09-18T22:01:03.905Z,43.70
2018-09-18T22:03:06.969Z,42.90
2018-09-18T22:05:10.012Z,43.10
2018-09-18T22:07:14.486Z,43.50
2018-09-18T22:09:17.440Z,43.70
2018-09-18T22:11:20.497Z,43.60
2018-09-18T22:13:23.469Z,43.80
2018-09-18T22:15:27.037Z,43.80
2018-09-18T22:17:30.035Z,43.90
2018-09-18T22:19:33.034Z,45.10
2018-09-18T22:21:35.999Z,44.50
2018-09-18T22:23:39.030Z,43.70
2018-09-18T22:25:43.486Z,43.80
2018-09-18T22:27:46.569Z,45.20
2018-09-18T22:29:50.121Z,45.00
2018-09-18T22:31:53.103Z,44.40
2018-09-18T22:33:56.129Z,44.70
2018-09-18T22:35:59.151Z,44.40
2018-09-18T22:38:02.137Z,44.90
2018-09-18T22:40:05.269Z,45.10
2018-09-18T22:42:08.284Z,44.70
2018-09-18T22:44:12.846Z,44.90
2018-09-18T22:46:15.819Z,45.40
2018-09-18T22:48:18.825Z,45.10
2018-09-18T22:50:21.894Z,45.10
2018-09-18T22:52:25.035Z,45.90
2018-09-18T22:54:28.027Z,45.80
2018-09-18T22:56:31.008Z,46.00
2018-09-18T22:58:34.078Z,45.10
2018-09-18T23:00:37.108Z,45.00
2018-09-18T23:02:40.117Z,45.80
2018-09-18T23:04:45.033Z,45.30
2018-09-18T23:06:48.103Z,45.70
2018-09-18T23:08:51.152Z,47.60
2018-09-18T23:10:54.378Z,47.10
2018-09-18T23:12:57.370Z,46.30
2018-09-18T23:15:00.482Z,46.00
2018-09-18T23:17:03.520Z,46.90
2018-09-18T23:19:06.504Z,46.10
2018-09-18T23:21:09.520Z,47.70
2018-09-18T23:23:14.440Z,47.50
2018-09-18T23:25:17.410Z,46.40
2018-09-18T23:27:20.385Z,47.40
2018-09-18T23:29:23.752Z,46.50
2018-09-18T23:31:26.737Z,46.90
2018-09-18T23:33:29.750Z,47.10
2018-09-18T23:35:32.854Z,46.50
2018-09-18T23:37:35.793Z,47.20
2018-09-18T23:39:38.866Z,46.90
2018-09-18T23:41:42.373Z,47.30
2018-09-18T23:43:45.866Z,47.10
2018-09-18T23:45:49.068Z,47.90
2018-09-18T23:47:52.055Z,47.90
2018-09-18T23:49:55.080Z,47.90
2018-09-18T23:51:58.038Z,47.70
2018-09-18T23:54:00.990Z,48.70
2018-09-18T23:56:04.027Z,48.80
2018-09-18T23:58:06.998Z,49.50
